Broken Bow, NE

12:35 PM CDT on July 25, 2014 (GMT -0500)
Broken Bow Municipal (KBBW) Elev 2546 ft | 41.44 °N, 99.64 °W | Change Station

Current weather conditions updated 42 minutes ago

Clear
Clear
84 °F
Feels Like 88 °F
N
15
Wind Variable Wind from North
Gusts 21 mph

Today is forecast to be Cooler than yesterday.

Today
High -- | Low -- °F
--% Chance of Precip.
Yesterday
High -- | Low -- °F
Precip. -- in
6:26 AM 9:02 PM
Waning Crescent, 1% visible
Pressure 29.86 in
Visibility 10.0 miles
Clouds Clear
Heat Index 88 °F
Dew Point 70 °F
Humidity 62%
Rainfall 0.00 in
Snow Depth Not available.
UV 9 out of 12
Pollen 7.50 out of 12
Air Quality Not available.
Flu Activity Not available.
METAR KBBW 251653Z AUTO 36013G18KT 10SM CLR 29/21 A2986

More Conditions Fewer Conditions

Pressure 29.86 in
Visibility 10.0 miles
Clouds Clear
Heat Index 88 °F
Dew Point 70 °F
Humidity 62%
Rainfall 0.00 in
Snow Depth Not available.
UV 9 out of 12
Pollen 7.50 out of 12
Air Quality Not available.
Flu Activity Not available.
METAR KBBW 251653Z AUTO 36013G18KT 10SM CLR 29/21 A2986

More Conditions Fewer Conditions

10-Day Weather Forecast

Almanac

Astronomy

Jul. 25, 2014 Rise Set
Actual Time 6:26 AM CDT 9:02 PM CDT
Civil Twilight 5:54 AM CDT 9:34 PM CDT
Nautical Twilight 5:15 AM CDT 10:14 PM CDT
Astronomical Twilight 4:29 AM CDT 10:59 PM CDT
Moon 5:28 AM CDT 8:00 PM CDT
Length of Visible Light 15h 39m
Length of Day
14h 36m
Tomorrow will be 1m 53s shorter.
Waning Crescent, 1% of the Moon is Illuminated
Today
Waning Crescent
Jul 26
New
Aug 3
First Quarter
Aug 10
Full
Aug 17
Last Quarter

Today's Extremes

State Highs State Lows

Community

WunderPhotos

Upload Photos

1,737,371 photos uploaded!

Nearby

Snow Depth

Station Depth Elevation
No new snow has been reported.

Earthquake Activity

City Distance Mag. Time & Date
No recent earthquake activity has been reported nearby.
Minimum magnitude displayed is 2.5.

Coastal Water Temperatures

Place Temperature
No Stations Reporting

Nearby Weather Stations

Station Location Temp. Heat Index Dew Point Humidity Wind Precip. Elev Updated Type
South of Town, Broken Bow, NE 84.7 °F 88 °F 68 °F 57% NNW  at  8.0 mph 0.00 in / hr 2523 ft 12:34 PM CDT Normal
Sargent, Sargent, NE 84.9 °F 89 °F 70 °F 61% NNW  at  3.0 mph 0.00 in / hr 2314 ft 12:26 PM CDT Normal

Show More Stations Show Fewer Stations